sensor_id;sensor_type;location;lat;lon;timestamp;temperature;humidity
59075;DHT22;44860;53.020;6.738;2023-03-01T00:01:27;-0.10;99.90
59075;DHT22;44860;53.020;6.738;2023-03-01T00:03:54;-0.10;99.90
59075;DHT22;44860;53.020;6.738;2023-03-01T00:06:21;-0.10;99.90
59075;DHT22;44860;53.020;6.738;2023-03-01T00:08:47;-0.10;99.90
59075;DHT22;44860;53.020;6.738;2023-03-01T00:11:17;-0.20;99.90
59075;DHT22;44860;53.020;6.738;2023-03-01T00:13:44;-0.10;99.90
59075;DHT22;44860;53.020;6.738;2023-03-01T00:16:12;-0.20;99.90
59075;DHT22;44860;53.020;6.738;2023-03-01T00:18:38;-0.20;99.90
59075;DHT22;44860;53.020;6.738;2023-03-01T00:21:04;-0.20;99.90
59075;DHT22;44860;53.020;6.738;2023-03-01T00:23:31;-0.20;99.90
59075;DHT22;44860;53.020;6.738;2023-03-01T00:25:57;-0.20;99.90
59075;DHT22;44860;53.020;6.738;2023-03-01T00:28:22;-0.30;99.90
59075;DHT22;44860;53.020;6.738;2023-03-01T00:30:49;-0.30;99.90
59075;DHT22;44860;53.020;6.738;2023-03-01T00:33:14;-0.30;99.90
59075;DHT22;44860;53.020;6.738;2023-03-01T00:35:40;-0.30;99.90
59075;DHT22;44860;53.020;6.738;2023-03-01T00:38:06;-0.30;99.90
59075;DHT22;44860;53.020;6.738;2023-03-01T00:40:34;-0.30;99.90
59075;DHT22;44860;53.020;6.738;2023-03-01T00:43:00;-0.40;99.90
59075;DHT22;44860;53.020;6.738;2023-03-01T00:45:26;-0.40;99.90
59075;DHT22;44860;53.020;6.738;2023-03-01T00:47:52;-0.40;99.90
59075;DHT22;44860;53.020;6.738;2023-03-01T00:50:18;-0.40;99.90
59075;DHT22;44860;53.020;6.738;2023-03-01T00:52:45;-0.40;99.90
59075;DHT22;44860;53.020;6.738;2023-03-01T00:55:11;-0.40;99.90
59075;DHT22;44860;53.020;6.738;2023-03-01T00:57:37;-0.40;99.90
59075;DHT22;44860;53.020;6.738;2023-03-01T01:00:05;-0.40;99.90
59075;DHT22;44860;53.020;6.738;2023-03-01T01:02:33;-0.40;99.90
59075;DHT22;44860;53.020;6.738;2023-03-01T01:04:58;-0.30;99.90
59075;DHT22;44860;53.020;6.738;2023-03-01T01:07:24;-0.30;99.90
59075;DHT22;44860;53.020;6.738;2023-03-01T01:09:50;-0.30;99.90
59075;DHT22;44860;53.020;6.738;2023-03-01T01:12:15;-0.30;99.90
59075;DHT22;44860;53.020;6.738;2023-03-01T01:14:41;-0.40;99.90
59075;DHT22;44860;53.020;6.738;2023-03-01T01:17:07;-0.40;99.90
59075;DHT22;44860;53.020;6.738;2023-03-01T01:19:32;-0.50;99.90
59075;DHT22;44860;53.020;6.738;2023-03-01T01:21:58;-0.50;99.90
59075;DHT22;44860;53.020;6.738;2023-03-01T01:24:24;-0.50;99.90
59075;DHT22;44860;53.020;6.738;2023-03-01T01:26:50;-0.50;99.90
59075;DHT22;44860;53.020;6.738;2023-03-01T01:29:15;-0.50;99.90
59075;DHT22;44860;53.020;6.738;2023-03-01T01:31:42;-0.60;99.90
59075;DHT22;44860;53.020;6.738;2023-03-01T01:34:15;-0.60;99.90
59075;DHT22;44860;53.020;6.738;2023-03-01T01:36:42;-0.60;99.90
59075;DHT22;44860;53.020;6.738;2023-03-01T01:39:08;-0.70;99.90
59075;DHT22;44860;53.020;6.738;2023-03-01T01:41:39;-0.70;99.90
59075;DHT22;44860;53.020;6.738;2023-03-01T01:44:10;-0.70;99.90
59075;DHT22;44860;53.020;6.738;2023-03-01T01:46:45;-0.70;99.90
59075;DHT22;44860;53.020;6.738;2023-03-01T01:52:00;-0.70;99.90
59075;DHT22;44860;53.020;6.738;2023-03-01T01:55:05;-0.80;99.90
59075;DHT22;44860;53.020;6.738;2023-03-01T01:57:37;-0.80;99.90
59075;DHT22;44860;53.020;6.738;2023-03-01T02:00:13;-0.80;99.90
59075;DHT22;44860;53.020;6.738;2023-03-01T02:02:40;-0.90;99.90
59075;DHT22;44860;53.020;6.738;2023-03-01T02:08:16;-0.90;99.90
59075;DHT22;44860;53.020;6.738;2023-03-01T02:10:44;-1.00;99.90
59075;DHT22;44860;53.020;6.738;2023-03-01T02:13:11;-0.90;99.90
59075;DHT22;44860;53.020;6.738;2023-03-01T02:15:38;-0.90;99.90
59075;DHT22;44860;53.020;6.738;2023-03-01T02:18:05;-1.00;99.90
59075;DHT22;44860;53.020;6.738;2023-03-01T02:23:00;-1.00;99.90
59075;DHT22;44860;53.020;6.738;2023-03-01T02:25:31;-0.90;99.90
59075;DHT22;44860;53.020;6.738;2023-03-01T02:30:42;-1.00;99.90
59075;DHT22;44860;53.020;6.738;2023-03-01T02:33:29;-1.00;99.90
59075;DHT22;44860;53.020;6.738;2023-03-01T02:35:59;-1.00;99.90
59075;DHT22;44860;53.020;6.738;2023-03-01T02:38:26;-1.00;99.90
59075;DHT22;44860;53.020;6.738;2023-03-01T02:40:52;-1.10;99.90
59075;DHT22;44860;53.020;6.738;2023-03-01T02:43:21;-1.10;99.90
59075;DHT22;44860;53.020;6.738;2023-03-01T02:45:52;-1.10;99.90
59075;DHT22;44860;53.020;6.738;2023-03-01T02:48:19;-1.10;99.90
59075;DHT22;44860;53.020;6.738;2023-03-01T02:51:05;-1.20;99.90
59075;DHT22;44860;53.020;6.738;2023-03-01T02:56:19;-1.20;99.90
59075;DHT22;44860;53.020;6.738;2023-03-01T02:58:45;-1.20;99.90
59075;DHT22;44860;53.020;6.738;2023-03-01T03:01:13;-1.20;99.90
59075;DHT22;44860;53.020;6.738;2023-03-01T03:03:41;-1.20;99.90
59075;DHT22;44860;53.020;6.738;2023-03-01T03:06:07;-1.20;99.90
59075;DHT22;44860;53.020;6.738;2023-03-01T03:08:33;-1.30;99.90
59075;DHT22;44860;53.020;6.738;2023-03-01T03:10:59;-1.30;99.90
59075;DHT22;44860;53.020;6.738;2023-03-01T03:13:24;-1.30;99.90
59075;DHT22;44860;53.020;6.738;2023-03-01T03:15:55;-1.30;99.90
59075;DHT22;44860;53.020;6.738;2023-03-01T03:18:22;-1.30;99.90
59075;DHT22;44860;53.020;6.738;2023-03-01T03:20:52;-1.30;99.90
59075;DHT22;44860;53.020;6.738;2023-03-01T03:23:19;-1.30;99.90
59075;DHT22;44860;53.020;6.738;2023-03-01T03:25:48;-1.30;99.90
59075;DHT22;44860;53.020;6.738;2023-03-01T03:28:13;-1.40;99.90
59075;DHT22;44860;53.020;6.738;2023-03-01T03:30:41;-1.40;99.90
59075;DHT22;44860;53.020;6.738;2023-03-01T03:33:07;-1.40;99.90
59075;DHT22;44860;53.020;6.738;2023-03-01T03:35:39;-1.40;99.90
59075;DHT22;44860;53.020;6.738;2023-03-01T03:38:08;-1.50;99.90
59075;DHT22;44860;53.020;6.738;2023-03-01T03:40:52;-1.50;99.90
59075;DHT22;44860;53.020;6.738;2023-03-01T03:43:22;-1.50;99.90
59075;DHT22;44860;53.020;6.738;2023-03-01T03:45:49;-1.50;99.90
59075;DHT22;44860;53.020;6.738;2023-03-01T03:48:16;-1.50;99.90
59075;DHT22;44860;53.020;6.738;2023-03-01T03:50:48;-1.50;99.90
59075;DHT22;44860;53.020;6.738;2023-03-01T03:53:14;-1.60;99.90
59075;DHT22;44860;53.020;6.738;2023-03-01T03:55:39;-1.60;99.90
59075;DHT22;44860;53.020;6.738;2023-03-01T03:58:07;-1.60;99.90
59075;DHT22;44860;53.020;6.738;2023-03-01T04:00:38;-1.60;99.90
59075;DHT22;44860;53.020;6.738;2023-03-01T04:03:05;-1.60;99.90
59075;DHT22;44860;53.020;6.738;2023-03-01T04:05:31;-1.60;99.90
59075;DHT22;44860;53.020;6.738;2023-03-01T04:07:57;-1.60;99.90
59075;DHT22;44860;53.020;6.738;2023-03-01T04:10:30;-1.60;99.90
59075;DHT22;44860;53.020;6.738;2023-03-01T04:12:57;-1.60;99.90
59075;DHT22;44860;53.020;6.738;2023-03-01T04:15:24;-1.70;99.90
59075;DHT22;44860;53.020;6.738;2023-03-01T04:17:51;-1.70;99.90
59075;DHT22;44860;53.020;6.738;2023-03-01T04:20:23;-1.70;99.90
59075;DHT22;44860;53.020;6.738;2023-03-01T04:25:46;-1.70;99.90
59075;DHT22;44860;53.020;6.738;2023-03-01T04:28:19;-1.70;99.90
59075;DHT22;44860;53.020;6.738;2023-03-01T04:30:45;-1.70;99.90
59075;DHT22;44860;53.020;6.738;2023-03-01T04:33:11;-1.70;99.90
59075;DHT22;44860;53.020;6.738;2023-03-01T04:35:37;-1.70;99.90
59075;DHT22;44860;53.020;6.738;2023-03-01T04:38:04;-1.80;99.90
59075;DHT22;44860;53.020;6.738;2023-03-01T04:40:31;-1.80;99.90
59075;DHT22;44860;53.020;6.738;2023-03-01T04:42:57;-1.80;99.90
59075;DHT22;44860;53.020;6.738;2023-03-01T04:45:22;-1.80;99.90
59075;DHT22;44860;53.020;6.738;2023-03-01T04:47:48;-1.80;99.90
59075;DHT22;44860;53.020;6.738;2023-03-01T04:50:16;-1.80;99.90
59075;DHT22;44860;53.020;6.738;2023-03-01T04:52:43;-1.80;99.90
59075;DHT22;44860;53.020;6.738;2023-03-01T04:55:10;-1.90;99.90
59075;DHT22;44860;53.020;6.738;2023-03-01T04:57:36;-1.90;99.90
59075;DHT22;44860;53.020;6.738;2023-03-01T05:00:03;-1.90;99.90
59075;DHT22;44860;53.020;6.738;2023-03-01T05:02:55;-1.90;99.90
59075;DHT22;44860;53.020;6.738;2023-03-01T05:07:56;-2.00;99.90
59075;DHT22;44860;53.020;6.738;2023-03-01T05:10:23;-1.90;99.90
59075;DHT22;44860;53.020;6.738;2023-03-01T05:12:49;-2.00;99.90
59075;DHT22;44860;53.020;6.738;2023-03-01T05:15:16;-1.90;99.90
59075;DHT22;44860;53.020;6.738;2023-03-01T05:17:41;-2.00;99.90
59075;DHT22;44860;53.020;6.738;2023-03-01T05:20:07;-2.00;99.90
59075;DHT22;44860;53.020;6.738;2023-03-01T05:22:36;-2.00;99.90
59075;DHT22;44860;53.020;6.738;2023-03-01T05:25:03;-2.00;99.90
59075;DHT22;44860;53.020;6.738;2023-03-01T05:27:29;-2.00;99.90
59075;DHT22;44860;53.020;6.738;2023-03-01T05:29:55;-2.00;99.90
59075;DHT22;44860;53.020;6.738;2023-03-01T05:32:21;-2.00;99.90
59075;DHT22;44860;53.020;6.738;2023-03-01T05:34:47;-2.00;99.90
59075;DHT22;44860;53.020;6.738;2023-03-01T05:37:13;-2.00;99.90
59075;DHT22;44860;53.020;6.738;2023-03-01T05:39:39;-2.00;99.90
59075;DHT22;44860;53.020;6.738;2023-03-01T05:42:05;-2.10;99.90
59075;DHT22;44860;53.020;6.738;2023-03-01T05:44:31;-2.10;99.90
59075;DHT22;44860;53.020;6.738;2023-03-01T05:46:57;-2.10;99.90
59075;DHT22;44860;53.020;6.738;2023-03-01T05:49:22;-2.10;99.90
59075;DHT22;44860;53.020;6.738;2023-03-01T05:51:52;-2.10;99.90
59075;DHT22;44860;53.020;6.738;2023-03-01T05:54:19;-2.10;99.90
59075;DHT22;44860;53.020;6.738;2023-03-01T05:56:45;-2.10;99.90
59075;DHT22;44860;53.020;6.738;2023-03-01T05:59:11;-2.10;99.90
59075;DHT22;44860;53.020;6.738;2023-03-01T06:01:37;-2.10;99.90
59075;DHT22;44860;53.020;6.738;2023-03-01T06:04:04;-2.20;99.90
59075;DHT22;44860;53.020;6.738;2023-03-01T06:06:33;-2.20;99.90
59075;DHT22;44860;53.020;6.738;2023-03-01T06:08:59;-2.20;99.90
59075;DHT22;44860;53.020;6.738;2023-03-01T06:11:25;-2.20;99.90
59075;DHT22;44860;53.020;6.738;2023-03-01T06:13:50;-2.20;99.90
59075;DHT22;44860;53.020;6.738;2023-03-01T06:16:16;-2.20;99.90
59075;DHT22;44860;53.020;6.738;2023-03-01T06:18:42;-2.20;99.90
59075;DHT22;44860;53.020;6.738;2023-03-01T06:21:08;-2.20;99.90
59075;DHT22;44860;53.020;6.738;2023-03-01T06:23:35;-2.20;99.90
59075;DHT22;44860;53.020;6.738;2023-03-01T06:26:04;-2.20;99.90
59075;DHT22;44860;53.020;6.738;2023-03-01T06:28:30;-2.30;99.90
59075;DHT22;44860;53.020;6.738;2023-03-01T06:30:56;-2.30;99.90
59075;DHT22;44860;53.020;6.738;2023-03-01T06:33:21;-2.30;99.90
59075;DHT22;44860;53.020;6.738;2023-03-01T06:35:50;-2.30;99.90
59075;DHT22;44860;53.020;6.738;2023-03-01T06:38:16;-2.30;99.90
59075;DHT22;44860;53.020;6.738;2023-03-01T06:40:44;-2.30;99.90
59075;DHT22;44860;53.020;6.738;2023-03-01T06:43:10;-2.20;99.90
59075;DHT22;44860;53.020;6.738;2023-03-01T06:45:37;-2.20;99.90
59075;DHT22;44860;53.020;6.738;2023-03-01T06:48:04;-2.10;99.90
59075;DHT22;44860;53.020;6.738;2023-03-01T06:50:30;-2.10;99.90
59075;DHT22;44860;53.020;6.738;2023-03-01T06:52:56;-2.10;99.90
59075;DHT22;44860;53.020;6.738;2023-03-01T06:55:22;-2.10;99.90
59075;DHT22;44860;53.020;6.738;2023-03-01T06:57:48;-2.10;99.90
59075;DHT22;44860;53.020;6.738;2023-03-01T07:00:14;-2.10;99.90
59075;DHT22;44860;53.020;6.738;2023-03-01T07:02:40;-2.10;99.90
59075;DHT22;44860;53.020;6.738;2023-03-01T07:05:07;-2.10;99.90
59075;DHT22;44860;53.020;6.738;2023-03-01T07:07:32;-2.00;99.90
59075;DHT22;44860;53.020;6.738;2023-03-01T07:09:58;-2.00;99.90
59075;DHT22;44860;53.020;6.738;2023-03-01T07:12:24;-2.00;99.90
59075;DHT22;44860;53.020;6.738;2023-03-01T07:14:49;-2.00;99.90
59075;DHT22;44860;53.020;6.738;2023-03-01T07:17:15;-2.00;99.90
59075;DHT22;44860;53.020;6.738;2023-03-01T07:19:40;-2.00;99.90
59075;DHT22;44860;53.020;6.738;2023-03-01T07:22:06;-2.00;99.90
59075;DHT22;44860;53.020;6.738;2023-03-01T07:24:33;-2.00;99.90
59075;DHT22;44860;53.020;6.738;2023-03-01T07:26:59;-2.00;99.90
59075;DHT22;44860;53.020;6.738;2023-03-01T07:29:25;-1.90;99.90
59075;DHT22;44860;53.020;6.738;2023-03-01T07:31:50;-1.90;99.90
59075;DHT22;44860;53.020;6.738;2023-03-01T07:34:16;-1.90;99.90
59075;DHT22;44860;53.020;6.738;2023-03-01T07:36:42;-1.90;99.90
59075;DHT22;44860;53.020;6.738;2023-03-01T07:39:10;-1.90;99.90
59075;DHT22;44860;53.020;6.738;2023-03-01T07:41:35;-1.90;99.90
59075;DHT22;44860;53.020;6.738;2023-03-01T07:44:01;-1.80;99.90
59075;DHT22;44860;53.020;6.738;2023-03-01T07:46:27;-1.90;99.90
59075;DHT22;44860;53.020;6.738;2023-03-01T07:48:53;-1.80;99.90
59075;DHT22;44860;53.020;6.738;2023-03-01T07:51:18;-1.80;99.90
59075;DHT22;44860;53.020;6.738;2023-03-01T07:53:46;-1.80;99.90
59075;DHT22;44860;53.020;6.738;2023-03-01T07:56:14;-1.70;99.90
59075;DHT22;44860;53.020;6.738;2023-03-01T07:58:42;-1.70;99.90
59075;DHT22;44860;53.020;6.738;2023-03-01T08:01:10;-1.70;99.90
59075;DHT22;44860;53.020;6.738;2023-03-01T08:03:37;-1.60;99.90
59075;DHT22;44860;53.020;6.738;2023-03-01T08:06:04;-1.50;99.90
59075;DHT22;44860;53.020;6.738;2023-03-01T08:08:31;-1.50;99.90
59075;DHT22;44860;53.020;6.738;2023-03-01T08:10:58;-1.40;99.90
59075;DHT22;44860;53.020;6.738;2023-03-01T08:13:24;-1.30;99.90
59075;DHT22;44860;53.020;6.738;2023-03-01T08:15:50;-1.30;99.90
59075;DHT22;44860;53.020;6.738;2023-03-01T08:18:17;-1.20;99.90
59075;DHT22;44860;53.020;6.738;2023-03-01T08:20:43;-1.10;99.90
59075;DHT22;44860;53.020;6.738;2023-03-01T08:23:09;-1.00;99.90
59075;DHT22;44860;53.020;6.738;2023-03-01T08:25:34;-0.90;99.90
59075;DHT22;44860;53.020;6.738;2023-03-01T08:28:00;-0.90;99.90
59075;DHT22;44860;53.020;6.738;2023-03-01T08:30:26;-0.80;99.90
59075;DHT22;44860;53.020;6.738;2023-03-01T08:32:52;-0.70;99.90
59075;DHT22;44860;53.020;6.738;2023-03-01T08:35:18;-0.60;99.90
59075;DHT22;44860;53.020;6.738;2023-03-01T08:37:44;-0.60;99.90
59075;DHT22;44860;53.020;6.738;2023-03-01T08:40:10;-0.50;99.90
59075;DHT22;44860;53.020;6.738;2023-03-01T08:42:36;-0.40;99.90
59075;DHT22;44860;53.020;6.738;2023-03-01T08:45:06;-0.40;99.90
59075;DHT22;44860;53.020;6.738;2023-03-01T08:47:32;-0.30;99.90
59075;DHT22;44860;53.020;6.738;2023-03-01T08:50:02;-0.20;99.90
59075;DHT22;44860;53.020;6.738;2023-03-01T08:52:28;-0.20;99.90
59075;DHT22;44860;53.020;6.738;2023-03-01T08:54:55;-0.20;99.90
59075;DHT22;44860;53.020;6.738;2023-03-01T08:57:21;-0.10;99.90
59075;DHT22;44860;53.020;6.738;2023-03-01T08:59:47;0.00;99.90
59075;DHT22;44860;53.020;6.738;2023-03-01T09:02:15;0.00;99.90
59075;DHT22;44860;53.020;6.738;2023-03-01T09:04:41;0.10;99.90
59075;DHT22;44860;53.020;6.738;2023-03-01T09:07:08;0.20;99.90
59075;DHT22;44860;53.020;6.738;2023-03-01T09:09:34;0.20;99.90
59075;DHT22;44860;53.020;6.738;2023-03-01T09:12:01;0.20;99.90
59075;DHT22;44860;53.020;6.738;2023-03-01T09:14:26;0.30;99.90
59075;DHT22;44860;53.020;6.738;2023-03-01T09:16:52;0.40;99.90
59075;DHT22;44860;53.020;6.738;2023-03-01T09:19:18;0.50;99.90
59075;DHT22;44860;53.020;6.738;2023-03-01T09:21:44;0.60;99.90
59075;DHT22;44860;53.020;6.738;2023-03-01T09:24:19;0.60;99.90
59075;DHT22;44860;53.020;6.738;2023-03-01T09:26:44;0.70;99.90
59075;DHT22;44860;53.020;6.738;2023-03-01T09:29:13;0.70;99.90
59075;DHT22;44860;53.020;6.738;2023-03-01T09:31:40;0.70;99.90
59075;DHT22;44860;53.020;6.738;2023-03-01T09:34:06;0.80;99.90
59075;DHT22;44860;53.020;6.738;2023-03-01T09:36:33;0.80;99.90
59075;DHT22;44860;53.020;6.738;2023-03-01T09:38:59;0.90;99.90
59075;DHT22;44860;53.020;6.738;2023-03-01T09:42:00;0.90;99.90
59075;DHT22;44860;53.020;6.738;2023-03-01T09:44:48;1.00;99.90
59075;DHT22;44860;53.020;6.738;2023-03-01T09:47:19;1.00;99.90
59075;DHT22;44860;53.020;6.738;2023-03-01T09:50:04;1.10;99.90
59075;DHT22;44860;53.020;6.738;2023-03-01T09:52:41;1.10;99.90
59075;DHT22;44860;53.020;6.738;2023-03-01T09:55:16;1.10;99.90
59075;DHT22;44860;53.020;6.738;2023-03-01T09:57:53;1.20;99.90
59075;DHT22;44860;53.020;6.738;2023-03-01T10:00:33;1.30;99.90
59075;DHT22;44860;53.020;6.738;2023-03-01T10:03:14;1.40;99.90
59075;DHT22;44860;53.020;6.738;2023-03-01T10:05:50;1.50;99.90
59075;DHT22;44860;53.020;6.738;2023-03-01T10:08:26;1.60;99.90
59075;DHT22;44860;53.020;6.738;2023-03-01T10:10:53;1.70;99.90
59075;DHT22;44860;53.020;6.738;2023-03-01T10:15:54;1.90;99.90
59075;DHT22;44860;53.020;6.738;2023-03-01T10:18:26;1.90;99.90
59075;DHT22;44860;53.020;6.738;2023-03-01T10:21:02;2.00;99.90
59075;DHT22;44860;53.020;6.738;2023-03-01T10:23:31;2.10;99.90
59075;DHT22;44860;53.020;6.738;2023-03-01T10:29:10;2.20;99.90
59075;DHT22;44860;53.020;6.738;2023-03-01T10:31:50;2.30;99.90
59075;DHT22;44860;53.020;6.738;2023-03-01T10:34:27;2.40;99.90
59075;DHT22;44860;53.020;6.738;2023-03-01T10:37:12;2.50;99.90
59075;DHT22;44860;53.020;6.738;2023-03-01T10:40:07;2.60;99.90
59075;DHT22;44860;53.020;6.738;2023-03-01T10:42:39;2.70;99.90
59075;DHT22;44860;53.020;6.738;2023-03-01T10:47:44;2.80;99.90
59075;DHT22;44860;53.020;6.738;2023-03-01T10:50:21;2.90;99.90
59075;DHT22;44860;53.020;6.738;2023-03-01T10:53:02;3.00;99.90
59075;DHT22;44860;53.020;6.738;2023-03-01T10:55:36;3.10;99.90
59075;DHT22;44860;53.020;6.738;2023-03-01T10:58:18;3.20;99.90
59075;DHT22;44860;53.020;6.738;2023-03-01T11:00:52;3.30;99.90
59075;DHT22;44860;53.020;6.738;2023-03-01T11:03:25;3.50;99.90
59075;DHT22;44860;53.020;6.738;2023-03-01T11:08:41;3.70;99.90
59075;DHT22;44860;53.020;6.738;2023-03-01T11:14:00;3.90;99.90
59075;DHT22;44860;53.020;6.738;2023-03-01T11:16:34;4.00;99.90
59075;DHT22;44860;53.020;6.738;2023-03-01T11:21:32;4.10;99.90
59075;DHT22;44860;53.020;6.738;2023-03-01T11:24:01;4.20;99.90
59075;DHT22;44860;53.020;6.738;2023-03-01T11:26:28;4.30;99.90
59075;DHT22;44860;53.020;6.738;2023-03-01T11:29:00;4.50;99.90
59075;DHT22;44860;53.020;6.738;2023-03-01T11:31:28;4.50;99.90
59075;DHT22;44860;53.020;6.738;2023-03-01T11:34:14;4.60;99.90
59075;DHT22;44860;53.020;6.738;2023-03-01T11:36:54;4.70;99.90
59075;DHT22;44860;53.020;6.738;2023-03-01T11:39:59;4.90;99.90
59075;DHT22;44860;53.020;6.738;2023-03-01T11:45:08;5.20;99.90
59075;DHT22;44860;53.020;6.738;2023-03-01T11:50:28;5.30;99.90
59075;DHT22;44860;53.020;6.738;2023-03-01T11:53:09;5.30;99.90
59075;DHT22;44860;53.020;6.738;2023-03-01T11:56:03;5.40;99.90
59075;DHT22;44860;53.020;6.738;2023-03-01T12:04:04;5.60;99.90
59075;DHT22;44860;53.020;6.738;2023-03-01T12:06:52;5.60;99.90
59075;DHT22;44860;53.020;6.738;2023-03-01T12:18:01;5.90;99.90
59075;DHT22;44860;53.020;6.738;2023-03-01T12:20:38;6.00;99.90
59075;DHT22;44860;53.020;6.738;2023-03-01T12:28:31;6.20;99.90
59075;DHT22;44860;53.020;6.738;2023-03-01T12:36:55;6.50;99.90
59075;DHT22;44860;53.020;6.738;2023-03-01T12:42:09;6.60;99.90
59075;DHT22;44860;53.020;6.738;2023-03-01T12:50:54;6.90;99.90
59075;DHT22;44860;53.020;6.738;2023-03-01T12:55:50;7.10;99.90
59075;DHT22;44860;53.020;6.738;2023-03-01T13:12:50;7.40;99.90
59075;DHT22;44860;53.020;6.738;2023-03-01T13:17:59;7.60;99.90
59075;DHT22;44860;53.020;6.738;2023-03-01T13:20:32;7.60;99.90
59075;DHT22;44860;53.020;6.738;2023-03-01T13:23:24;7.60;99.90
59075;DHT22;44860;53.020;6.738;2023-03-01T13:26:04;7.70;99.90
59075;DHT22;44860;53.020;6.738;2023-03-01T13:33:56;7.90;99.90
59075;DHT22;44860;53.020;6.738;2023-03-01T13:39:31;8.00;99.90
59075;DHT22;44860;53.020;6.738;2023-03-01T13:41:58;8.00;99.90
59075;DHT22;44860;53.020;6.738;2023-03-01T13:47:02;8.20;99.90
59075;DHT22;44860;53.020;6.738;2023-03-01T13:49:42;8.30;99.90
59075;DHT22;44860;53.020;6.738;2023-03-01T13:52:40;8.30;99.90
59075;DHT22;44860;53.020;6.738;2023-03-01T13:55:32;8.30;99.90
59075;DHT22;44860;53.020;6.738;2023-03-01T13:58:03;8.40;99.90
59075;DHT22;44860;53.020;6.738;2023-03-01T14:03:15;8.60;99.90
59075;DHT22;44860;53.020;6.738;2023-03-01T14:05:43;8.60;99.90
59075;DHT22;44860;53.020;6.738;2023-03-01T14:08:21;8.70;99.90
59075;DHT22;44860;53.020;6.738;2023-03-01T14:10:54;8.70;99.90
59075;DHT22;44860;53.020;6.738;2023-03-01T14:19:19;8.80;99.90
59075;DHT22;44860;53.020;6.738;2023-03-01T14:22:20;8.90;99.90
59075;DHT22;44860;53.020;6.738;2023-03-01T14:24:48;8.90;99.90
59075;DHT22;44860;53.020;6.738;2023-03-01T14:27:15;9.00;99.90
59075;DHT22;44860;53.020;6.738;2023-03-01T14:29:41;9.00;99.90
59075;DHT22;44860;53.020;6.738;2023-03-01T14:32:11;9.10;99.90
59075;DHT22;44860;53.020;6.738;2023-03-01T14:34:43;9.10;99.90
59075;DHT22;44860;53.020;6.738;2023-03-01T14:37:20;9.20;99.90
59075;DHT22;44860;53.020;6.738;2023-03-01T14:39:47;9.30;99.90
59075;DHT22;44860;53.020;6.738;2023-03-01T14:42:13;9.30;99.90
59075;DHT22;44860;53.020;6.738;2023-03-01T14:44:43;9.40;99.90
59075;DHT22;44860;53.020;6.738;2023-03-01T14:47:14;9.40;99.90
59075;DHT22;44860;53.020;6.738;2023-03-01T14:49:41;9.40;99.90
59075;DHT22;44860;53.020;6.738;2023-03-01T14:52:21;9.40;99.90
59075;DHT22;44860;53.020;6.738;2023-03-01T14:54:52;9.40;99.90
59075;DHT22;44860;53.020;6.738;2023-03-01T14:57:23;9.40;99.90
59075;DHT22;44860;53.020;6.738;2023-03-01T14:59:50;9.50;99.90
59075;DHT22;44860;53.020;6.738;2023-03-01T15:02:20;9.50;99.90
59075;DHT22;44860;53.020;6.738;2023-03-01T15:04:49;9.60;99.90
59075;DHT22;44860;53.020;6.738;2023-03-01T15:07:15;9.60;99.90
59075;DHT22;44860;53.020;6.738;2023-03-01T15:09:42;9.60;99.90
59075;DHT22;44860;53.020;6.738;2023-03-01T15:14:52;9.60;99.90
59075;DHT22;44860;53.020;6.738;2023-03-01T15:17:35;9.60;99.90
59075;DHT22;44860;53.020;6.738;2023-03-01T15:20:05;9.60;99.90
59075;DHT22;44860;53.020;6.738;2023-03-01T15:22:32;9.60;99.90
59075;DHT22;44860;53.020;6.738;2023-03-01T15:24:58;9.60;99.90
59075;DHT22;44860;53.020;6.738;2023-03-01T15:27:25;9.60;99.90
59075;DHT22;44860;53.020;6.738;2023-03-01T15:30:02;9.60;99.90
59075;DHT22;44860;53.020;6.738;2023-03-01T15:32:36;9.60;99.90
59075;DHT22;44860;53.020;6.738;2023-03-01T15:40:55;9.50;99.90
59075;DHT22;44860;53.020;6.738;2023-03-01T15:43:54;9.50;99.90
59075;DHT22;44860;53.020;6.738;2023-03-01T15:46:30;9.50;99.90
59075;DHT22;44860;53.020;6.738;2023-03-01T15:48:59;9.50;99.90
59075;DHT22;44860;53.020;6.738;2023-03-01T15:51:34;9.50;99.90
59075;DHT22;44860;53.020;6.738;2023-03-01T15:54:22;9.50;99.90
59075;DHT22;44860;53.020;6.738;2023-03-01T15:56:49;9.40;99.90
59075;DHT22;44860;53.020;6.738;2023-03-01T15:59:16;9.40;99.90
59075;DHT22;44860;53.020;6.738;2023-03-01T16:01:42;9.40;99.90
59075;DHT22;44860;53.020;6.738;2023-03-01T16:04:12;9.30;99.90
59075;DHT22;44860;53.020;6.738;2023-03-01T16:06:42;9.20;99.90
59075;DHT22;44860;53.020;6.738;2023-03-01T16:09:08;9.20;99.90
59075;DHT22;44860;53.020;6.738;2023-03-01T16:11:35;9.10;99.90
59075;DHT22;44860;53.020;6.738;2023-03-01T16:14:02;9.00;99.90
59075;DHT22;44860;53.020;6.738;2023-03-01T16:16:28;8.90;99.90
59075;DHT22;44860;53.020;6.738;2023-03-01T16:18:54;8.80;99.90
59075;DHT22;44860;53.020;6.738;2023-03-01T16:21:23;8.80;99.90
59075;DHT22;44860;53.020;6.738;2023-03-01T16:23:49;8.70;99.90
59075;DHT22;44860;53.020;6.738;2023-03-01T16:26:15;8.60;99.90
59075;DHT22;44860;53.020;6.738;2023-03-01T16:28:42;8.50;99.90
59075;DHT22;44860;53.020;6.738;2023-03-01T16:31:08;8.50;99.90
59075;DHT22;44860;53.020;6.738;2023-03-01T16:33:34;8.40;99.90
59075;DHT22;44860;53.020;6.738;2023-03-01T16:36:10;8.30;99.90
59075;DHT22;44860;53.020;6.738;2023-03-01T16:38:37;8.30;99.90
59075;DHT22;44860;53.020;6.738;2023-03-01T16:41:03;8.20;99.90
59075;DHT22;44860;53.020;6.738;2023-03-01T16:43:31;8.10;99.90
59075;DHT22;44860;53.020;6.738;2023-03-01T16:45:57;8.00;99.90
59075;DHT22;44860;53.020;6.738;2023-03-01T16:48:24;8.00;99.90
59075;DHT22;44860;53.020;6.738;2023-03-01T16:51:00;7.90;99.90
59075;DHT22;44860;53.020;6.738;2023-03-01T16:53:27;7.80;99.90
59075;DHT22;44860;53.020;6.738;2023-03-01T16:55:55;7.80;99.90
59075;DHT22;44860;53.020;6.738;2023-03-01T16:58:21;7.60;99.90
59075;DHT22;44860;53.020;6.738;2023-03-01T17:00:49;7.60;99.90
59075;DHT22;44860;53.020;6.738;2023-03-01T17:03:15;7.50;99.90
59075;DHT22;44860;53.020;6.738;2023-03-01T17:05:42;7.50;99.90
59075;DHT22;44860;53.020;6.738;2023-03-01T17:08:08;7.40;99.90
59075;DHT22;44860;53.020;6.738;2023-03-01T17:10:33;7.30;99.90
59075;DHT22;44860;53.020;6.738;2023-03-01T17:12:59;7.20;99.90
59075;DHT22;44860;53.020;6.738;2023-03-01T17:15:25;7.20;99.90
59075;DHT22;44860;53.020;6.738;2023-03-01T17:17:50;7.10;99.90
59075;DHT22;44860;53.020;6.738;2023-03-01T17:20:16;7.00;99.90
59075;DHT22;44860;53.020;6.738;2023-03-01T17:22:42;7.00;99.90
59075;DHT22;44860;53.020;6.738;2023-03-01T17:25:09;6.90;99.90
59075;DHT22;44860;53.020;6.738;2023-03-01T17:27:37;6.70;99.90
59075;DHT22;44860;53.020;6.738;2023-03-01T17:30:05;6.70;99.90
59075;DHT22;44860;53.020;6.738;2023-03-01T17:32:31;6.60;99.90
59075;DHT22;44860;53.020;6.738;2023-03-01T17:34:57;6.50;99.90
59075;DHT22;44860;53.020;6.738;2023-03-01T17:37:22;6.50;99.90
59075;DHT22;44860;53.020;6.738;2023-03-01T17:39:49;6.40;99.90
59075;DHT22;44860;53.020;6.738;2023-03-01T17:42:14;6.40;99.90
59075;DHT22;44860;53.020;6.738;2023-03-01T17:44:40;6.40;99.90
59075;DHT22;44860;53.020;6.738;2023-03-01T17:47:06;6.30;99.90
59075;DHT22;44860;53.020;6.738;2023-03-01T17:49:32;6.30;99.90
59075;DHT22;44860;53.020;6.738;2023-03-01T17:51:57;6.30;99.90
59075;DHT22;44860;53.020;6.738;2023-03-01T17:54:23;6.20;99.90